sensor_id;sensor_type;location;lat;lon;timestamp;P1;durP1;ratioP1;P2;durP2;ratioP2
12912;SDS011;6524;51.368;11.984;2023-04-09T04:01:21;38.80;;;25.70;;
12912;SDS011;6524;51.368;11.984;2023-04-09T04:06:21;38.17;;;25.13;;
12912;SDS011;6524;51.368;11.984;2023-04-09T04:11:21;37.50;;;24.23;;
12912;SDS011;6524;51.368;11.984;2023-04-09T04:16:22;34.27;;;23.30;;
12912;SDS011;6524;51.368;11.984;2023-04-09T04:21:22;35.17;;;23.23;;
12912;SDS011;6524;51.368;11.984;2023-04-09T04:26:23;35.10;;;23.03;;
12912;SDS011;6524;51.368;11.984;2023-04-09T04:31:23;37.33;;;23.10;;
12912;SDS011;6524;51.368;11.984;2023-04-09T04:36:23;37.22;;;24.98;;
12912;SDS011;6524;51.368;11.984;2023-04-09T04:41:25;41.20;;;24.70;;
12912;SDS011;6524;51.368;11.984;2023-04-09T04:46:25;36.57;;;23.00;;
12912;SDS011;6524;51.368;11.984;2023-04-09T04:51:25;34.73;;;23.47;;
12912;SDS011;6524;51.368;11.984;2023-04-09T04:56:26;37.07;;;24.23;;
12912;SDS011;6524;51.368;11.984;2023-04-09T05:01:27;34.07;;;22.30;;
12912;SDS011;6524;51.368;11.984;2023-04-09T05:06:27;31.70;;;22.13;;
12912;SDS011;6524;51.368;11.984;2023-04-09T05:11:28;35.87;;;23.00;;
12912;SDS011;6524;51.368;11.984;2023-04-09T05:16:29;32.55;;;22.42;;
12912;SDS011;6524;51.368;11.984;2023-04-09T05:21:29;36.47;;;22.70;;
12912;SDS011;6524;51.368;11.984;2023-04-09T05:26:30;37.13;;;24.87;;
12912;SDS011;6524;51.368;11.984;2023-04-09T05:31:31;37.13;;;25.03;;
12912;SDS011;6524;51.368;11.984;2023-04-09T05:36:31;33.93;;;22.83;;
12912;SDS011;6524;51.368;11.984;2023-04-09T05:41:31;33.47;;;22.30;;
12912;SDS011;6524;51.368;11.984;2023-04-09T05:46:32;35.77;;;24.07;;
12912;SDS011;6524;51.368;11.984;2023-04-09T05:51:32;37.67;;;24.23;;
12912;SDS011;6524;51.368;11.984;2023-04-09T05:56:33;39.37;;;26.67;;
12912;SDS011;6524;51.368;11.984;2023-04-09T06:01:34;39.13;;;27.57;;
12912;SDS011;6524;51.368;11.984;2023-04-09T06:06:38;39.07;;;26.20;;
12912;SDS011;6524;51.368;11.984;2023-04-09T06:11:38;37.80;;;25.50;;
12912;SDS011;6524;51.368;11.984;2023-04-09T06:16:38;42.43;;;27.80;;
12912;SDS011;6524;51.368;11.984;2023-04-09T06:21:39;40.60;;;27.35;;
12912;SDS011;6524;51.368;11.984;2023-04-09T06:26:39;39.73;;;29.03;;
12912;SDS011;6524;51.368;11.984;2023-04-09T06:31:43;41.17;;;29.30;;
12912;SDS011;6524;51.368;11.984;2023-04-09T06:36:43;44.03;;;29.50;;
12912;SDS011;6524;51.368;11.984;2023-04-09T06:41:44;41.30;;;29.77;;
12912;SDS011;6524;51.368;11.984;2023-04-09T06:46:45;41.40;;;29.43;;
12912;SDS011;6524;51.368;11.984;2023-04-09T06:51:49;43.30;;;30.90;;
12912;SDS011;6524;51.368;11.984;2023-04-09T06:56:52;42.63;;;31.00;;
12912;SDS011;6524;51.368;11.984;2023-04-09T07:01:52;39.70;;;29.83;;
12912;SDS011;6524;51.368;11.984;2023-04-09T07:06:53;42.77;;;30.73;;
12912;SDS011;6524;51.368;11.984;2023-04-09T07:11:54;40.17;;;30.42;;
12912;SDS011;6524;51.368;11.984;2023-04-09T07:16:54;37.47;;;29.92;;
12912;SDS011;6524;51.368;11.984;2023-04-09T07:21:55;38.20;;;31.00;;
12912;SDS011;6524;51.368;11.984;2023-04-09T07:26:55;35.25;;;28.75;;
12912;SDS011;6524;51.368;11.984;2023-04-09T07:31:55;36.53;;;29.27;;
12912;SDS011;6524;51.368;11.984;2023-04-09T07:36:56;33.22;;;29.60;;
12912;SDS011;6524;51.368;11.984;2023-04-09T07:41:56;33.57;;;29.93;;
12912;SDS011;6524;51.368;11.984;2023-04-09T07:46:56;33.83;;;30.37;;
12912;SDS011;6524;51.368;11.984;2023-04-09T07:51:58;33.27;;;29.97;;
12912;SDS011;6524;51.368;11.984;2023-04-09T07:56:59;32.10;;;29.00;;
12912;SDS011;6524;51.368;11.984;2023-04-09T08:02:02;30.75;;;27.95;;
12912;SDS011;6524;51.368;11.984;2023-04-09T08:07:03;28.63;;;26.03;;
12912;SDS011;6524;51.368;11.984;2023-04-09T08:12:03;29.17;;;26.47;;
12912;SDS011;6524;51.368;11.984;2023-04-09T08:17:03;28.50;;;25.83;;
12912;SDS011;6524;51.368;11.984;2023-04-09T08:22:04;27.35;;;24.92;;
12912;SDS011;6524;51.368;11.984;2023-04-09T08:27:04;28.63;;;26.02;;
12912;SDS011;6524;51.368;11.984;2023-04-09T08:32:05;27.10;;;24.70;;
12912;SDS011;6524;51.368;11.984;2023-04-09T08:37:05;26.58;;;24.17;;
12912;SDS011;6524;51.368;11.984;2023-04-09T08:42:06;23.10;;;21.10;;
12912;SDS011;6524;51.368;11.984;2023-04-09T08:47:07;22.48;;;20.48;;
12912;SDS011;6524;51.368;11.984;2023-04-09T08:52:11;22.13;;;20.33;;
12912;SDS011;6524;51.368;11.984;2023-04-09T08:57:11;23.10;;;21.17;;
12912;SDS011;6524;51.368;11.984;2023-04-09T09:02:15;25.27;;;22.90;;
12912;SDS011;6524;51.368;11.984;2023-04-09T09:07:15;23.48;;;21.38;;
12912;SDS011;6524;51.368;11.984;2023-04-09T09:12:35;22.90;;;21.00;;
12912;SDS011;6524;51.368;11.984;2023-04-09T09:17:52;23.45;;;21.45;;
12912;SDS011;6524;51.368;11.984;2023-04-09T09:22:57;22.17;;;20.27;;
12912;SDS011;6524;51.368;11.984;2023-04-09T09:28:08;21.83;;;20.02;;
12912;SDS011;6524;51.368;11.984;2023-04-09T09:33:10;20.05;;;18.35;;
12912;SDS011;6524;51.368;11.984;2023-04-09T09:38:11;21.10;;;19.30;;
12912;SDS011;6524;51.368;11.984;2023-04-09T09:43:14;19.27;;;17.63;;
12912;SDS011;6524;51.368;11.984;2023-04-09T09:48:15;20.88;;;19.08;;
12912;SDS011;6524;51.368;11.984;2023-04-09T09:53:15;19.65;;;17.98;;
12912;SDS011;6524;51.368;11.984;2023-04-09T09:58:22;19.88;;;18.08;;
12912;SDS011;6524;51.368;11.984;2023-04-09T10:03:27;19.95;;;18.05;;
12912;SDS011;6524;51.368;11.984;2023-04-09T10:08:31;21.58;;;19.67;;
12912;SDS011;6524;51.368;11.984;2023-04-09T10:13:34;19.13;;;17.42;;
12912;SDS011;6524;51.368;11.984;2023-04-09T10:18:36;20.92;;;19.13;;
12912;SDS011;6524;51.368;11.984;2023-04-09T10:23:43;20.02;;;18.13;;
12912;SDS011;6524;51.368;11.984;2023-04-09T10:28:56;19.60;;;17.90;;
12912;SDS011;6524;51.368;11.984;2023-04-09T10:34:05;21.40;;;19.40;;
12912;SDS011;6524;51.368;11.984;2023-04-09T10:39:10;22.13;;;20.10;;
12912;SDS011;6524;51.368;11.984;2023-04-09T10:44:24;21.13;;;19.23;;
12912;SDS011;6524;51.368;11.984;2023-04-09T10:49:26;21.95;;;19.85;;
12912;SDS011;6524;51.368;11.984;2023-04-09T10:59:34;22.95;;;20.75;;
12912;SDS011;6524;51.368;11.984;2023-04-09T11:09:54;21.23;;;19.15;;
12912;SDS011;6524;51.368;11.984;2023-04-09T11:14:55;21.50;;;19.37;;
12912;SDS011;6524;51.368;11.984;2023-04-09T11:19:55;19.75;;;17.77;;
12912;SDS011;6524;51.368;11.984;2023-04-09T11:24:56;21.25;;;19.13;;
12912;SDS011;6524;51.368;11.984;2023-04-09T11:29:56;21.33;;;19.23;;
12912;SDS011;6524;51.368;11.984;2023-04-09T11:34:57;21.15;;;19.05;;
12912;SDS011;6524;51.368;11.984;2023-04-09T11:39:57;21.30;;;19.03;;
12912;SDS011;6524;51.368;11.984;2023-04-09T11:44:58;21.23;;;19.13;;
12912;SDS011;6524;51.368;11.984;2023-04-09T11:50:41;19.33;;;17.42;;
12912;SDS011;6524;51.368;11.984;2023-04-09T11:55:42;18.60;;;16.80;;
12912;SDS011;6524;51.368;11.984;2023-04-09T12:00:52;18.30;;;16.50;;
12912;SDS011;6524;51.368;11.984;2023-04-09T12:05:55;17.90;;;16.20;;
12912;SDS011;6524;51.368;11.984;2023-04-09T12:10:55;16.60;;;15.00;;
12912;SDS011;6524;51.368;11.984;2023-04-09T12:15:56;16.48;;;14.88;;
12912;SDS011;6524;51.368;11.984;2023-04-09T12:21:51;16.00;;;14.48;;
12912;SDS011;6524;51.368;11.984;2023-04-09T12:26:54;16.30;;;14.70;;
12912;SDS011;6524;51.368;11.984;2023-04-09T12:31:56;16.23;;;14.73;;
12912;SDS011;6524;51.368;11.984;2023-04-09T12:36:56;16.85;;;15.35;;
12912;SDS011;6524;51.368;11.984;2023-04-09T12:41:57;15.95;;;14.55;;
12912;SDS011;6524;51.368;11.984;2023-04-09T12:46:57;16.05;;;14.65;;
12912;SDS011;6524;51.368;11.984;2023-04-09T12:51:58;16.80;;;15.40;;
12912;SDS011;6524;51.368;11.984;2023-04-09T12:56:58;15.50;;;14.10;;
12912;SDS011;6524;51.368;11.984;2023-04-09T13:01:58;17.40;;;15.80;;
12912;SDS011;6524;51.368;11.984;2023-04-09T13:06:59;16.60;;;15.10;;
12912;SDS011;6524;51.368;11.984;2023-04-09T13:11:59;15.45;;;14.05;;
12912;SDS011;6524;51.368;11.984;2023-04-09T13:17:01;14.60;;;13.20;;
12912;SDS011;6524;51.368;11.984;2023-04-09T13:22:01;14.75;;;13.35;;
12912;SDS011;6524;51.368;11.984;2023-04-09T13:27:03;17.30;;;15.70;;
12912;SDS011;6524;51.368;11.984;2023-04-09T13:32:05;17.80;;;16.10;;
12912;SDS011;6524;51.368;11.984;2023-04-09T13:37:09;17.58;;;15.88;;
12912;SDS011;6524;51.368;11.984;2023-04-09T13:42:10;16.55;;;14.95;;
12912;SDS011;6524;51.368;11.984;2023-04-09T13:47:11;14.67;;;13.27;;
12912;SDS011;6524;51.368;11.984;2023-04-09T13:52:12;15.02;;;13.52;;
12912;SDS011;6524;51.368;11.984;2023-04-09T13:57:13;15.02;;;13.52;;
12912;SDS011;6524;51.368;11.984;2023-04-09T14:02:33;14.50;;;13.20;;
12912;SDS011;6524;51.368;11.984;2023-04-09T14:07:35;13.40;;;12.10;;
12912;SDS011;6524;51.368;11.984;2023-04-09T14:12:38;12.50;;;11.30;;
12912;SDS011;6524;51.368;11.984;2023-04-09T14:17:39;12.35;;;11.15;;
12912;SDS011;6524;51.368;11.984;2023-04-09T14:22:42;12.43;;;11.23;;
12912;SDS011;6524;51.368;11.984;2023-04-09T14:27:54;12.68;;;11.48;;
12912;SDS011;6524;51.368;11.984;2023-04-09T14:32:54;11.50;;;10.45;;
12912;SDS011;6524;51.368;11.984;2023-04-09T14:38:07;10.52;;;9.60;;
12912;SDS011;6524;51.368;11.984;2023-04-09T14:43:33;10.35;;;9.35;;
12912;SDS011;6524;51.368;11.984;2023-04-09T14:48:34;9.45;;;8.57;;
12912;SDS011;6524;51.368;11.984;2023-04-09T14:53:36;9.10;;;8.20;;
12912;SDS011;6524;51.368;11.984;2023-04-09T14:58:40;10.15;;;9.10;;
12912;SDS011;6524;51.368;11.984;2023-04-09T15:03:54;9.18;;;8.30;;
12912;SDS011;6524;51.368;11.984;2023-04-09T15:09:04;9.43;;;8.43;;
12912;SDS011;6524;51.368;11.984;2023-04-09T15:14:05;9.55;;;8.65;;
12912;SDS011;6524;51.368;11.984;2023-04-09T15:19:05;9.98;;;8.98;;
12912;SDS011;6524;51.368;11.984;2023-04-09T15:24:06;9.25;;;8.45;;
12912;SDS011;6524;51.368;11.984;2023-04-09T15:29:07;10.00;;;9.00;;
12912;SDS011;6524;51.368;11.984;2023-04-09T15:34:07;10.18;;;9.10;;
12912;SDS011;6524;51.368;11.984;2023-04-09T15:39:07;9.95;;;8.95;;
12912;SDS011;6524;51.368;11.984;2023-04-09T15:44:08;10.43;;;9.38;;
12912;SDS011;6524;51.368;11.984;2023-04-09T15:49:08;9.60;;;8.68;;
12912;SDS011;6524;51.368;11.984;2023-04-09T15:54:10;10.38;;;9.25;;
12912;SDS011;6524;51.368;11.984;2023-04-09T15:59:16;9.95;;;9.05;;
12912;SDS011;6524;51.368;11.984;2023-04-09T16:04:17;11.23;;;10.02;;
12912;SDS011;6524;51.368;11.984;2023-04-09T16:09:18;11.27;;;10.18;;
12912;SDS011;6524;51.368;11.984;2023-04-09T16:14:18;11.00;;;9.88;;
12912;SDS011;6524;51.368;11.984;2023-04-09T16:19:19;10.52;;;9.10;;
12912;SDS011;6524;51.368;11.984;2023-04-09T16:24:20;12.65;;;10.43;;
12912;SDS011;6524;51.368;11.984;2023-04-09T16:29:20;12.52;;;11.07;;
12912;SDS011;6524;51.368;11.984;2023-04-09T16:34:21;12.77;;;11.32;;
12912;SDS011;6524;51.368;11.984;2023-04-09T16:39:21;13.18;;;11.43;;
12912;SDS011;6524;51.368;11.984;2023-04-09T16:44:22;13.35;;;11.90;;
12912;SDS011;6524;51.368;11.984;2023-04-09T16:49:22;17.70;;;14.35;;
12912;SDS011;6524;51.368;11.984;2023-04-09T16:54:23;16.90;;;14.38;;
12912;SDS011;6524;51.368;11.984;2023-04-09T16:59:23;17.80;;;15.63;;
12912;SDS011;6524;51.368;11.984;2023-04-09T17:04:24;19.20;;;15.88;;
12912;SDS011;6524;51.368;11.984;2023-04-09T17:09:26;17.08;;;15.00;;
12912;SDS011;6524;51.368;11.984;2023-04-09T17:14:27;18.27;;;15.20;;
12912;SDS011;6524;51.368;11.984;2023-04-09T17:19:27;18.17;;;15.32;;
12912;SDS011;6524;51.368;11.984;2023-04-09T17:24:28;17.63;;;14.90;;
12912;SDS011;6524;51.368;11.984;2023-04-09T17:29:31;19.15;;;15.55;;
12912;SDS011;6524;51.368;11.984;2023-04-09T17:34:33;17.80;;;15.30;;
12912;SDS011;6524;51.368;11.984;2023-04-09T17:39:33;18.10;;;15.55;;
12912;SDS011;6524;51.368;11.984;2023-04-09T17:44:34;16.98;;;14.93;;
12912;SDS011;6524;51.368;11.984;2023-04-09T17:49:36;15.55;;;13.85;;
12912;SDS011;6524;51.368;11.984;2023-04-09T17:54:39;16.17;;;13.88;;
12912;SDS011;6524;51.368;11.984;2023-04-09T17:59:39;19.45;;;15.35;;
12912;SDS011;6524;51.368;11.984;2023-04-09T18:04:40;17.35;;;15.02;;
12912;SDS011;6524;51.368;11.984;2023-04-09T18:09:40;17.83;;;14.30;;
12912;SDS011;6524;51.368;11.984;2023-04-09T18:14:41;17.63;;;15.10;;
12912;SDS011;6524;51.368;11.984;2023-04-09T18:19:41;19.00;;;15.75;;
12912;SDS011;6524;51.368;11.984;2023-04-09T18:24:42;18.67;;;16.17;;
12912;SDS011;6524;51.368;11.984;2023-04-09T18:29:42;26.00;;;19.48;;
12912;SDS011;6524;51.368;11.984;2023-04-09T18:34:43;21.58;;;16.98;;
12912;SDS011;6524;51.368;11.984;2023-04-09T18:39:44;23.17;;;17.95;;
12912;SDS011;6524;51.368;11.984;2023-04-09T18:44:45;21.63;;;17.10;;
12912;SDS011;6524;51.368;11.984;2023-04-09T18:49:46;20.88;;;17.55;;
12912;SDS011;6524;51.368;11.984;2023-04-09T18:54:46;21.40;;;17.02;;
12912;SDS011;6524;51.368;11.984;2023-04-09T18:59:47;23.33;;;18.52;;
12912;SDS011;6524;51.368;11.984;2023-04-09T19:04:48;25.05;;;19.63;;
12912;SDS011;6524;51.368;11.984;2023-04-09T19:09:48;23.88;;;18.17;;
12912;SDS011;6524;51.368;11.984;2023-04-09T19:14:48;23.55;;;17.80;;
12912;SDS011;6524;51.368;11.984;2023-04-09T19:19:49;22.67;;;16.88;;
12912;SDS011;6524;51.368;11.984;2023-04-09T19:24:50;22.90;;;18.23;;
12912;SDS011;6524;51.368;11.984;2023-04-09T19:29:50;24.67;;;19.90;;
12912;SDS011;6524;51.368;11.984;2023-04-09T19:34:52;24.63;;;19.83;;
12912;SDS011;6524;51.368;11.984;2023-04-09T19:39:53;23.98;;;20.05;;
12912;SDS011;6524;51.368;11.984;2023-04-09T19:44:53;25.00;;;19.33;;
12912;SDS011;6524;51.368;11.984;2023-04-09T19:49:54;23.00;;;19.15;;
12912;SDS011;6524;51.368;11.984;2023-04-09T19:54:54;27.13;;;21.55;;
12912;SDS011;6524;51.368;11.984;2023-04-09T19:59:55;26.10;;;21.75;;
12912;SDS011;6524;51.368;11.984;2023-04-09T20:04:55;28.20;;;21.88;;
12912;SDS011;6524;51.368;11.984;2023-04-09T20:09:56;26.40;;;20.17;;
12912;SDS011;6524;51.368;11.984;2023-04-09T20:14:57;25.17;;;19.77;;
12912;SDS011;6524;51.368;11.984;2023-04-09T20:19:58;25.98;;;20.65;;
12912;SDS011;6524;51.368;11.984;2023-04-09T20:24:58;26.50;;;20.92;;
12912;SDS011;6524;51.368;11.984;2023-04-09T20:29:59;24.65;;;19.77;;
12912;SDS011;6524;51.368;11.984;2023-04-09T20:35:00;23.42;;;20.10;;
12912;SDS011;6524;51.368;11.984;2023-04-09T20:40:01;24.95;;;19.67;;
12912;SDS011;6524;51.368;11.984;2023-04-09T20:45:01;24.48;;;18.92;;
12912;SDS011;6524;51.368;11.984;2023-04-09T20:50:02;23.42;;;17.80;;
12912;SDS011;6524;51.368;11.984;2023-04-09T20:55:04;23.20;;;18.85;;
12912;SDS011;6524;51.368;11.984;2023-04-09T21:00:05;20.20;;;17.98;;
12912;SDS011;6524;51.368;11.984;2023-04-09T21:05:07;20.10;;;17.42;;
12912;SDS011;6524;51.368;11.984;2023-04-09T21:10:08;24.80;;;18.30;;
12912;SDS011;6524;51.368;11.984;2023-04-09T21:15:08;20.50;;;17.20;;
12912;SDS011;6524;51.368;11.984;2023-04-09T21:20:10;22.45;;;18.10;;
12912;SDS011;6524;51.368;11.984;2023-04-09T21:25:11;24.15;;;18.25;;
12912;SDS011;6524;51.368;11.984;2023-04-09T21:30:11;23.47;;;19.33;;
12912;SDS011;6524;51.368;11.984;2023-04-09T21:35:11;22.20;;;18.55;;
12912;SDS011;6524;51.368;11.984;2023-04-09T21:40:12;23.07;;;18.37;;
12912;SDS011;6524;51.368;11.984;2023-04-09T21:45:12;25.57;;;20.00;;
12912;SDS011;6524;51.368;11.984;2023-04-09T21:50:13;23.03;;;18.93;;
12912;SDS011;6524;51.368;11.984;2023-04-09T21:55:14;21.87;;;17.93;;
12912;SDS011;6524;51.368;11.984;2023-04-09T22:00:14;24.83;;;19.40;;
12912;SDS011;6524;51.368;11.984;2023-04-09T22:05:15;22.60;;;18.20;;
12912;SDS011;6524;51.368;11.984;2023-04-09T22:10:15;23.77;;;18.87;;
12912;SDS011;6524;51.368;11.984;2023-04-09T22:15:16;23.37;;;19.10;;
12912;SDS011;6524;51.368;11.984;2023-04-09T22:20:18;22.80;;;18.10;;
12912;SDS011;6524;51.368;11.984;2023-04-09T22:25:18;22.50;;;18.07;;
12912;SDS011;6524;51.368;11.984;2023-04-09T22:30:19;26.90;;;20.43;;
12912;SDS011;6524;51.368;11.984;2023-04-09T22:35:23;24.37;;;19.47;;
12912;SDS011;6524;51.368;11.984;2023-04-09T22:40:23;26.10;;;20.07;;
12912;SDS011;6524;51.368;11.984;2023-04-09T22:45:24;21.67;;;18.03;;
12912;SDS011;6524;51.368;11.984;2023-04-09T22:50:26;22.60;;;18.10;;
12912;SDS011;6524;51.368;11.984;2023-04-09T22:55:27;23.43;;;18.47;;
12912;SDS011;6524;51.368;11.984;2023-04-09T23:00:27;20.20;;;17.33;;
12912;SDS011;6524;51.368;11.984;2023-04-09T23:05:28;23.60;;;18.90;;
12912;SDS011;6524;51.368;11.984;2023-04-09T23:10:29;28.37;;;20.80;;
12912;SDS011;6524;51.368;11.984;2023-04-09T23:15:29;28.30;;;20.93;;
12912;SDS011;6524;51.368;11.984;2023-04-09T23:20:29;28.00;;;20.40;;
12912;SDS011;6524;51.368;11.984;2023-04-09T23:25:30;26.17;;;20.63;;
12912;SDS011;6524;51.368;11.984;2023-04-09T23:30:30;27.30;;;20.70;;
12912;SDS011;6524;51.368;11.984;2023-04-09T23:35:31;27.93;;;21.00;;
12912;SDS011;6524;51.368;11.984;2023-04-09T23:40:31;27.47;;;21.50;;
12912;SDS011;6524;51.368;11.984;2023-04-09T23:45:31;28.20;;;20.90;;
12912;SDS011;6524;51.368;11.984;2023-04-09T23:50:32;27.53;;;21.83;;
12912;SDS011;6524;51.368;11.984;2023-04-09T23:55:32;26.30;;;20.83;;
